Time,TemperatureF,DewpointF,PressureIn,WindDirection,WindDirectionDegrees,WindSpeedMPH,WindSpeedGustMPH,Humidity,HourlyPrecipIn,Conditions,Clouds,dailyrainin,SoftwareType,DateUTC
2013-07-28 00:06:00,57.0,49.2,30.05,West,270,0.0,-999.0,75,-99.99,,,0.00,Acu-Link.com,2013-07-28 05:06:00,
2013-07-28 00:21:00,56.5,49.0,30.06,West,270,0.0,-999.0,76,-99.99,,,0.00,Acu-Link.com,2013-07-28 05:21:00,
2013-07-28 00:36:00,56.1,49.3,30.06,North,0,0.0,-999.0,78,-99.99,,,0.00,Acu-Link.com,2013-07-28 05:36:00,
2013-07-28 01:07:00,56.1,49.3,30.07,West,270,0.0,-999.0,78,-99.99,,,0.00,Acu-Link.com,2013-07-28 06:07:00,
2013-07-28 01:22:00,55.4,49.3,30.07,West,270,0.0,-999.0,80,-99.99,,,0.00,Acu-Link.com,2013-07-28 06:22:00,
2013-07-28 01:37:00,55.0,49.6,30.07,SW,225,0.0,-999.0,82,-99.99,,,0.00,Acu-Link.com,2013-07-28 06:37:00,
2013-07-28 01:52:00,54.7,50.0,30.07,SW,225,0.0,-999.0,84,-99.99,,,0.00,Acu-Link.com,2013-07-28 06:52:00,
2013-07-28 02:07:00,54.3,49.6,30.08,WSW,247,0.0,-999.0,84,-99.99,,,0.00,Acu-Link.com,2013-07-28 07:07:00,
2013-07-28 02:23:00,54.1,49.7,30.07,NNE,22,0.0,-999.0,85,-99.99,,,0.00,Acu-Link.com,2013-07-28 07:23:00,
2013-07-28 02:38:00,53.8,49.4,30.07,West,270,0.0,-999.0,85,-99.99,,,0.00,Acu-Link.com,2013-07-28 07:38:00,
2013-07-28 02:53:00,53.4,49.6,30.07,West,270,0.0,-999.0,87,-99.99,,,0.00,Acu-Link.com,2013-07-28 07:53:00,
2013-07-28 03:08:00,53.1,49.6,30.07,SW,225,0.0,-999.0,88,-99.99,,,0.00,Acu-Link.com,2013-07-28 08:08:00,
2013-07-28 03:23:00,52.7,49.2,30.06,NNW,337,0.0,-999.0,88,-99.99,,,0.00,Acu-Link.com,2013-07-28 08:23:00,
2013-07-28 03:39:00,52.3,49.5,30.06,West,270,0.0,-999.0,90,-99.99,,,0.00,Acu-Link.com,2013-07-28 08:39:00,
2013-07-28 03:54:00,52.2,49.7,30.06,SW,225,2.2,-999.0,91,-99.99,,,0.00,Acu-Link.com,2013-07-28 08:54:00,
2013-07-28 04:09:00,52.3,49.2,30.06,West,270,0.0,-999.0,89,-99.99,,,0.00,Acu-Link.com,2013-07-28 09:09:00,
2013-07-28 04:24:00,52.0,48.9,30.06,SW,225,0.0,-999.0,89,-99.99,,,0.00,Acu-Link.com,2013-07-28 09:24:00,
2013-07-28 04:40:00,52.0,49.2,30.06,WSW,247,0.0,-999.0,90,-99.99,,,0.00,Acu-Link.com,2013-07-28 09:40:00,
2013-07-28 04:55:00,52.2,49.7,30.06,WSW,247,0.0,-999.0,91,-99.99,,,0.00,Acu-Link.com,2013-07-28 09:55:00,
2013-07-28 05:10:00,52.2,49.4,30.06,NNW,337,0.0,-999.0,90,-99.99,,,0.00,Acu-Link.com,2013-07-28 10:10:00,
2013-07-28 05:25:00,52.2,48.4,30.06,WSW,247,3.2,-999.0,87,-99.99,,,0.00,Acu-Link.com,2013-07-28 10:25:00,
2013-07-28 05:41:00,52.5,48.7,30.06,WSW,247,2.7,-999.0,87,-99.99,,,0.00,Acu-Link.com,2013-07-28 10:41:00,
2013-07-28 06:26:00,52.3,48.2,30.08,WSW,247,2.7,-999.0,86,-99.99,,,0.00,Acu-Link.com,2013-07-28 11:26:00,
2013-07-28 06:57:00,55.6,49.5,30.08,WSW,247,2.7,-999.0,80,-99.99,,,0.00,Acu-Link.com,2013-07-28 11:57:00,
2013-07-28 07:12:00,57.2,49.7,30.08,WSW,247,2.7,-999.0,76,-99.99,,,0.00,Acu-Link.com,2013-07-28 12:12:00,
2013-07-28 07:27:00,59.5,51.6,30.09,ENE,67,0.0,-999.0,75,-99.99,,,0.00,Acu-Link.com,2013-07-28 12:27:00,
2013-07-28 07:42:00,61.2,52.1,30.09,NNE,22,0.0,-999.0,72,-99.99,,,0.00,Acu-Link.com,2013-07-28 12:42:00,
2013-07-28 07:58:00,63.0,51.9,30.09,WNW,292,0.0,-999.0,67,-99.99,,,0.00,Acu-Link.com,2013-07-28 12:58:00,
2013-07-28 08:13:00,64.6,53.0,30.10,North,0,0.0,-999.0,66,-99.99,,,0.00,Acu-Link.com,2013-07-28 13:13:00,
2013-07-28 08:28:00,65.1,52.6,30.10,East,90,1.1,-999.0,64,-99.99,,,0.00,Acu-Link.com,2013-07-28 13:28:00,
2013-07-28 08:43:00,65.1,53.0,30.09,ENE,67,0.0,-999.0,65,-99.99,,,0.00,Acu-Link.com,2013-07-28 13:43:00,
2013-07-28 08:58:00,66.2,52.8,30.10,WSW,247,2.2,-999.0,62,-99.99,,,0.00,Acu-Link.com,2013-07-28 13:58:00,
2013-07-28 09:14:00,68.7,54.2,30.10,WSW,247,0.0,-999.0,60,-99.99,,,0.00,Acu-Link.com,2013-07-28 14:14:00,
2013-07-28 09:29:00,71.4,54.4,30.09,West,270,2.2,-999.0,55,-99.99,,,0.00,Acu-Link.com,2013-07-28 14:29:00,
2013-07-28 09:44:00,74.3,56.0,30.09,West,270,1.7,-999.0,53,-99.99,,,0.00,Acu-Link.com,2013-07-28 14:44:00,
2013-07-28 09:59:00,77.9,53.6,30.09,NNE,22,2.2,-999.0,43,-99.99,,,0.00,Acu-Link.com,2013-07-28 14:59:00,
2013-07-28 10:14:00,79.0,53.3,30.08,North,0,0.0,-999.0,41,-99.99,,,0.00,Acu-Link.com,2013-07-28 15:14:00,
2013-07-28 10:30:00,82.0,51.6,30.08,ESE,112,2.2,-999.0,35,-99.99,,,0.00,Acu-Link.com,2013-07-28 15:30:00,
2013-07-28 10:45:00,81.7,52.1,30.09,West,270,1.1,-999.0,36,-99.99,,,0.00,Acu-Link.com,2013-07-28 15:45:00,
2013-07-28 11:00:00,84.9,51.7,30.09,East,90,3.7,-999.0,32,-99.99,,,0.00,Acu-Link.com,2013-07-28 16:00:00,
2013-07-28 11:16:00,82.2,48.5,30.09,ENE,67,4.7,-999.0,31,-99.99,,,0.00,Acu-Link.com,2013-07-28 16:16:00,
2013-07-28 11:31:00,82.4,48.7,30.08,SE,135,3.2,-999.0,31,-99.99,,,0.00,Acu-Link.com,2013-07-28 16:31:00,
2013-07-28 11:46:00,81.7,50.6,30.08,SW,225,2.7,-999.0,34,-99.99,,,0.00,Acu-Link.com,2013-07-28 16:46:00,
2013-07-28 12:01:00,83.5,52.1,30.08,NW,315,5.8,-999.0,34,-99.99,,,0.00,Acu-Link.com,2013-07-28 17:01:00,
2013-07-28 12:32:00,82.6,50.6,30.07,North,0,5.3,-999.0,33,-99.99,,,0.00,Acu-Link.com,2013-07-28 17:32:00,
2013-07-28 12:47:00,84.2,51.9,30.07,ENE,67,3.7,-999.0,33,-99.99,,,0.00,Acu-Link.com,2013-07-28 17:47:00,
2013-07-28 13:02:00,82.2,51.0,30.07,North,0,4.2,-999.0,34,-99.99,,,0.00,Acu-Link.com,2013-07-28 18:02:00,